createdAt,value
2023-11-30T00:00:10.365Z,7.6
2023-11-30T00:01:18.957Z,7.3
2023-11-30T00:02:27.260Z,7.3
2023-11-30T00:03:35.638Z,7.3
2023-11-30T00:04:44.158Z,7.3
2023-11-30T00:05:52.574Z,7.3
2023-11-30T00:07:00.848Z,7.3
2023-11-30T00:08:09.387Z,7
2023-11-30T00:09:17.751Z,7
2023-11-30T00:10:26.074Z,7
2023-11-30T00:11:34.602Z,7.8
2023-11-30T00:12:42.950Z,7.8
2023-11-30T00:13:51.277Z,7.8
2023-11-30T00:14:59.915Z,7.8
2023-11-30T00:16:08.188Z,7.8
2023-11-30T00:17:16.518Z,7.8
2023-11-30T00:18:25.105Z,7.6
2023-11-30T00:19:33.398Z,7.6
2023-11-30T00:20:41.741Z,7.6
2023-11-30T00:21:50.284Z,7.2
2023-11-30T00:22:58.617Z,7.2
2023-11-30T00:24:06.957Z,7.2
2023-11-30T00:25:15.482Z,7.6
2023-11-30T00:26:23.829Z,7.6
2023-11-30T00:27:32.165Z,7.6
2023-11-30T00:28:40.694Z,7.6
2023-11-30T00:29:49.045Z,7.6
2023-11-30T00:30:57.446Z,7.6
2023-11-30T00:32:05.952Z,7.6
2023-11-30T00:33:14.350Z,7.6
2023-11-30T00:34:22.628Z,7.6
2023-11-30T00:35:31.197Z,8.2
2023-11-30T00:36:39.525Z,8.2
2023-11-30T00:37:47.851Z,8.2
2023-11-30T00:38:56.429Z,8.1
2023-11-30T00:40:04.754Z,8.1
2023-11-30T00:41:13.082Z,8.1
2023-11-30T00:42:21.662Z,8.2
2023-11-30T00:43:29.961Z,8.2
2023-11-30T00:44:38.321Z,8.2
2023-11-30T00:45:50.400Z,7.9
2023-11-30T00:46:55.204Z,7.9
2023-11-30T00:48:03.619Z,7.9
2023-11-30T00:49:12.112Z,7.5
2023-11-30T00:50:20.472Z,7.5
2023-11-30T00:51:28.812Z,7.5
2023-11-30T00:52:37.346Z,8
2023-11-30T00:53:45.672Z,8
2023-11-30T00:54:54.017Z,8
2023-11-30T00:56:02.574Z,8
2023-11-30T00:57:10.992Z,8
2023-11-30T00:58:19.318Z,8
2023-11-30T00:59:27.874Z,7.8
2023-11-30T01:00:36.198Z,7.8
2023-11-30T01:01:44.792Z,7.8
2023-11-30T01:02:53.139Z,7.6
2023-11-30T01:04:01.433Z,7.6
2023-11-30T01:05:09.743Z,7.6
2023-11-30T01:06:18.336Z,7.6
2023-11-30T01:07:26.624Z,7.6
2023-11-30T01:08:34.968Z,7.6
2023-11-30T01:09:43.516Z,7.2
2023-11-30T01:10:51.845Z,7.2
2023-11-30T01:12:00.219Z,7.2
2023-11-30T01:13:08.786Z,6.4
2023-11-30T01:14:17.145Z,6.4
2023-11-30T01:15:25.508Z,6.4
2023-11-30T01:16:34.048Z,6.1
2023-11-30T01:17:42.411Z,6.1
2023-11-30T01:18:50.866Z,6.1
2023-11-30T01:19:59.270Z,6.3
2023-11-30T01:21:07.668Z,6.3
2023-11-30T01:22:15.956Z,6.3
2023-11-30T01:23:24.500Z,6.2
2023-11-30T01:24:32.848Z,6.2
2023-11-30T01:25:41.180Z,6.2
2023-11-30T01:26:49.733Z,5.8
2023-11-30T01:27:58.046Z,5.8
2023-11-30T01:29:06.413Z,5.8
2023-11-30T01:30:14.992Z,6
2023-11-30T01:31:23.318Z,6
2023-11-30T01:32:31.662Z,6
2023-11-30T01:33:40.202Z,6.2
2023-11-30T01:34:48.578Z,6.2
2023-11-30T01:35:56.903Z,6.2
2023-11-30T01:37:05.473Z,6.3
2023-11-30T01:38:13.796Z,6.3
2023-11-30T01:39:22.226Z,6.3
2023-11-30T01:40:30.685Z,6.1
2023-11-30T01:41:39.022Z,6.1
2023-11-30T01:42:47.350Z,6.1
2023-11-30T01:43:55.910Z,6
2023-11-30T01:45:04.250Z,6
2023-11-30T01:46:12.582Z,6
2023-11-30T01:47:21.140Z,6.3
2023-11-30T01:48:29.513Z,6.3
2023-11-30T01:49:37.818Z,6.3
2023-11-30T01:50:46.367Z,6
2023-11-30T01:51:54.694Z,6
2023-11-30T01:53:03.027Z,6
2023-11-30T01:54:11.572Z,5.8
2023-11-30T01:55:19.911Z,5.8
2023-11-30T01:56:28.255Z,5.8
2023-11-30T01:57:36.789Z,5.5
2023-11-30T01:58:45.124Z,5.5
2023-11-30T01:59:53.493Z,5.5
2023-11-30T02:01:02.068Z,6
2023-11-30T02:02:10.446Z,6
2023-11-30T02:03:18.783Z,6
2023-11-30T02:04:27.281Z,6.1
2023-11-30T02:05:35.583Z,6.1
2023-11-30T02:06:43.935Z,6.1
2023-11-30T02:07:52.463Z,6
2023-11-30T02:09:00.790Z,6
2023-11-30T02:10:09.124Z,6
2023-11-30T02:11:17.695Z,6.3
2023-11-30T02:12:26.049Z,6.3
2023-11-30T02:13:34.361Z,6.3
2023-11-30T02:14:42.922Z,5.7
2023-11-30T02:15:51.344Z,5.7
2023-11-30T02:16:59.611Z,5.7
2023-11-30T02:18:08.340Z,5.7
2023-11-30T02:19:16.505Z,5.7
2023-11-30T02:20:24.842Z,5.7
2023-11-30T02:21:33.426Z,5.7
2023-11-30T02:22:41.747Z,5.7
2023-11-30T02:23:50.078Z,5.7
2023-11-30T02:24:58.604Z,5.6
2023-11-30T02:26:06.947Z,5.6
2023-11-30T02:27:15.319Z,5.6
2023-11-30T02:28:23.824Z,5.3
2023-11-30T02:29:32.168Z,5.3
2023-11-30T02:30:40.498Z,5.3
2023-11-30T02:31:49.061Z,6
2023-11-30T02:32:57.400Z,6
2023-11-30T02:34:05.732Z,6
2023-11-30T02:35:14.278Z,5.7
2023-11-30T02:36:22.640Z,5.7
2023-11-30T02:37:30.940Z,5.7
2023-11-30T02:38:39.516Z,5.8
2023-11-30T02:39:47.843Z,5.8
2023-11-30T02:40:56.180Z,5.8
2023-11-30T02:42:04.752Z,5.9
2023-11-30T02:43:13.092Z,5.9
2023-11-30T02:44:21.428Z,5.9
2023-11-30T02:45:29.992Z,6
2023-11-30T02:46:38.347Z,6
2023-11-30T02:47:46.696Z,6
2023-11-30T02:48:55.199Z,5.5
2023-11-30T02:50:03.537Z,5.5
2023-11-30T02:51:11.929Z,5.5
2023-11-30T02:52:20.429Z,5.6
2023-11-30T02:53:28.773Z,5.6
2023-11-30T02:54:37.163Z,5.6
2023-11-30T02:55:45.675Z,5.7
2023-11-30T02:56:54.022Z,5.7
2023-11-30T02:58:02.374Z,5.7
2023-11-30T02:59:10.965Z,6
2023-11-30T03:00:19.392Z,6
2023-11-30T03:01:27.673Z,6
2023-11-30T03:02:36.219Z,5.9
2023-11-30T03:03:44.536Z,5.9
2023-11-30T03:04:52.842Z,5.9
2023-11-30T03:06:01.382Z,5.9
2023-11-30T03:07:09.733Z,5.9
2023-11-30T03:08:18.072Z,5.9
2023-11-30T03:09:26.666Z,5.6
2023-11-30T03:10:34.969Z,5.6
2023-11-30T03:11:43.291Z,5.6
2023-11-30T03:12:51.834Z,5.6
2023-11-30T03:14:00.258Z,5.6
2023-11-30T03:15:08.531Z,5.6
2023-11-30T03:16:17.088Z,5.5
2023-11-30T03:17:25.399Z,5.5
2023-11-30T03:18:33.773Z,5.5
2023-11-30T03:19:42.274Z,5.6
2023-11-30T03:20:50.610Z,5.6
2023-11-30T03:21:58.983Z,5.6
2023-11-30T03:23:07.530Z,5.4
2023-11-30T03:24:15.873Z,5.4
2023-11-30T03:25:24.200Z,5.4
2023-11-30T03:26:32.776Z,5.5
2023-11-30T03:27:41.091Z,5.5
2023-11-30T03:28:49.417Z,5.5
2023-11-30T03:29:57.967Z,5.5
2023-11-30T03:31:06.320Z,5.5
2023-11-30T03:32:14.692Z,5.5
2023-11-30T03:33:23.217Z,5.7
2023-11-30T03:34:31.551Z,5.7
2023-11-30T03:35:39.884Z,5.7
2023-11-30T03:36:48.562Z,6.3
2023-11-30T03:37:56.773Z,6.3
2023-11-30T03:39:05.168Z,6.3
2023-11-30T03:40:13.691Z,5.5
2023-11-30T03:41:22.052Z,5.5
2023-11-30T03:42:30.450Z,5.5
2023-11-30T03:43:38.897Z,6
2023-11-30T03:44:47.265Z,6
2023-11-30T03:45:55.638Z,6
2023-11-30T03:47:04.173Z,6.2
2023-11-30T03:48:12.548Z,6.2
2023-11-30T03:49:20.891Z,6.2
2023-11-30T03:50:29.420Z,6.5
2023-11-30T03:51:37.928Z,6.5
2023-11-30T03:52:46.144Z,6.5
2023-11-30T03:53:54.635Z,6.2
2023-11-30T03:55:02.968Z,6.2
2023-11-30T03:56:11.301Z,6.2
2023-11-30T03:57:19.856Z,6.2
2023-11-30T03:58:28.281Z,6.2
2023-11-30T03:59:36.523Z,6.2
2023-11-30T04:00:45.088Z,6.3
2023-11-30T04:01:53.456Z,6.3
2023-11-30T04:03:01.771Z,6.3
2023-11-30T04:04:10.302Z,6.3
2023-11-30T04:05:18.659Z,6.3
2023-11-30T04:06:27.004Z,6.3
2023-11-30T04:07:35.500Z,6.3
2023-11-30T04:08:43.868Z,6.3
2023-11-30T04:09:52.253Z,6.3
2023-11-30T04:11:00.770Z,6.5
2023-11-30T04:12:09.120Z,6.5
2023-11-30T04:13:17.452Z,6.5
2023-11-30T04:14:26.033Z,6.8
2023-11-30T04:15:34.391Z,6.8
2023-11-30T04:16:42.814Z,6.8
2023-11-30T04:17:51.219Z,7
2023-11-30T04:18:59.593Z,7
2023-11-30T04:20:07.886Z,7
2023-11-30T04:21:16.433Z,6.7
2023-11-30T04:22:24.746Z,6.7
2023-11-30T04:23:33.089Z,6.7
2023-11-30T04:24:41.634Z,7.5
2023-11-30T04:25:49.966Z,7.5
2023-11-30T04:26:58.312Z,7.5
2023-11-30T04:28:06.844Z,8.6
2023-11-30T04:29:15.198Z,8.6
2023-11-30T04:30:23.735Z,8.6
2023-11-30T04:31:32.186Z,8.3
2023-11-30T04:32:40.546Z,8.3
2023-11-30T04:33:48.949Z,8.3
2023-11-30T04:34:57.423Z,7.9
2023-11-30T04:36:05.845Z,7.9
2023-11-30T04:37:14.102Z,7.9
2023-11-30T04:38:22.716Z,8
2023-11-30T04:39:31.063Z,8
2023-11-30T04:40:39.359Z,8
2023-11-30T04:41:47.912Z,8.3
2023-11-30T04:42:56.249Z,8.3
2023-11-30T04:44:04.605Z,8.3
2023-11-30T04:45:13.191Z,8.3
2023-11-30T04:46:21.569Z,8.3
2023-11-30T04:47:29.894Z,8.3
2023-11-30T04:48:40.905Z,8.5
2023-11-30T04:49:46.770Z,8.5
2023-11-30T04:50:55.134Z,8.5
2023-11-30T04:52:03.683Z,8.2
2023-11-30T04:53:12.020Z,8.2
2023-11-30T04:54:20.382Z,8.2
2023-11-30T04:55:28.942Z,8.3
2023-11-30T04:56:37.301Z,8.3
2023-11-30T04:57:45.628Z,8.3
2023-11-30T04:58:54.174Z,9.2
2023-11-30T05:00:02.561Z,9.2
2023-11-30T05:01:10.889Z,9.2
2023-11-30T05:02:19.545Z,8.6
2023-11-30T05:03:28.031Z,8.6
2023-11-30T05:04:36.216Z,8.6
2023-11-30T05:05:44.699Z,9.8
2023-11-30T05:06:53.044Z,9.8
2023-11-30T05:08:01.379Z,9.8
2023-11-30T05:09:09.929Z,10.1
2023-11-30T05:10:18.254Z,10.1
2023-11-30T05:11:26.576Z,10.1
2023-11-30T05:12:35.134Z,10.1
2023-11-30T05:13:43.474Z,10.1
2023-11-30T05:14:51.826Z,10.1
2023-11-30T05:16:00.398Z,10.6
2023-11-30T05:17:08.751Z,10.6
2023-11-30T05:18:17.156Z,10.6
2023-11-30T05:19:25.623Z,10.9
2023-11-30T05:20:33.977Z,10.9
2023-11-30T05:21:42.321Z,10.9
2023-11-30T05:22:50.859Z,11.5
2023-11-30T05:23:59.251Z,11.5
2023-11-30T05:25:07.561Z,11.5
2023-11-30T05:26:16.102Z,11.5
2023-11-30T05:27:24.457Z,11.5
2023-11-30T05:28:33.275Z,11.5
2023-11-30T05:29:41.357Z,9.9
2023-11-30T05:30:49.744Z,9.9
2023-11-30T05:31:58.060Z,9.9
2023-11-30T05:33:06.680Z,13.4
2023-11-30T05:34:15.024Z,13.4
2023-11-30T05:35:23.333Z,13.4
2023-11-30T05:36:31.885Z,10.4
2023-11-30T05:37:40.222Z,10.4
2023-11-30T05:38:48.547Z,10.4
2023-11-30T05:39:57.083Z,11.2
2023-11-30T05:41:05.437Z,11.2
2023-11-30T05:42:13.818Z,11.2
2023-11-30T05:43:22.346Z,12
2023-11-30T05:44:30.660Z,12
2023-11-30T05:45:38.996Z,12
2023-11-30T05:46:47.557Z,12.7
2023-11-30T05:47:55.924Z,12.7
2023-11-30T05:49:04.262Z,12.7
2023-11-30T05:50:12.782Z,12.8
2023-11-30T05:51:21.105Z,12.8
2023-11-30T05:52:29.419Z,12.8
2023-11-30T05:53:37.971Z,12
2023-11-30T05:54:46.324Z,12
2023-11-30T05:55:54.641Z,12
2023-11-30T05:57:03.184Z,12.9
2023-11-30T05:58:11.507Z,12.9
2023-11-30T05:59:19.845Z,12.9
2023-11-30T06:00:28.424Z,13.7
2023-11-30T06:01:36.746Z,13.7
2023-11-30T06:02:45.080Z,13.7
2023-11-30T06:03:53.710Z,13.5
2023-11-30T06:05:02.052Z,13.5
2023-11-30T06:06:10.340Z,13.5
2023-11-30T06:07:18.839Z,12.5
2023-11-30T06:08:27.163Z,12.5
2023-11-30T06:09:35.494Z,12.5
2023-11-30T06:10:44.046Z,11.8
2023-11-30T06:11:52.404Z,11.8
2023-11-30T06:13:00.836Z,11.8
2023-11-30T06:14:09.291Z,11.4
2023-11-30T06:15:17.649Z,11.4
2023-11-30T06:16:25.982Z,11.4
2023-11-30T06:17:34.536Z,11.8
2023-11-30T06:18:42.926Z,11.8
2023-11-30T06:19:51.263Z,11.8
2023-11-30T06:20:59.849Z,14.4
2023-11-30T06:22:08.198Z,14.4
2023-11-30T06:23:16.516Z,14.4
2023-11-30T06:24:25.076Z,13.4
2023-11-30T06:25:33.402Z,13.4
2023-11-30T06:26:41.734Z,13.4
2023-11-30T06:27:50.292Z,16
2023-11-30T06:28:58.640Z,16
2023-11-30T06:30:06.988Z,16
2023-11-30T06:31:15.544Z,16.4
2023-11-30T06:32:23.845Z,16.4
2023-11-30T06:33:32.201Z,16.4
2023-11-30T06:34:40.737Z,17.6
2023-11-30T06:35:49.063Z,17.6
2023-11-30T06:36:57.409Z,17.6
2023-11-30T06:38:05.955Z,12.5
2023-11-30T06:39:14.331Z,12.5
2023-11-30T06:40:22.624Z,12.5
2023-11-30T06:41:31.170Z,12.4
2023-11-30T06:42:39.524Z,12.4
2023-11-30T06:43:47.863Z,12.4
2023-11-30T06:44:56.408Z,12.6
2023-11-30T06:46:04.753Z,12.6
2023-11-30T06:47:13.130Z,12.6
2023-11-30T06:48:21.694Z,12.7
2023-11-30T06:49:29.999Z,12.7
2023-11-30T06:50:38.358Z,12.7
2023-11-30T06:51:46.923Z,11.3
2023-11-30T06:52:55.253Z,11.3
2023-11-30T06:54:03.634Z,11.3
2023-11-30T06:55:12.130Z,11
2023-11-30T06:56:20.482Z,11
2023-11-30T06:57:28.865Z,11
2023-11-30T06:58:37.358Z,11.1
2023-11-30T06:59:45.702Z,11.1
2023-11-30T07:00:54.046Z,11.1
2023-11-30T07:02:02.624Z,11.6
2023-11-30T07:03:11.062Z,11.6
2023-11-30T07:04:19.356Z,11.6
2023-11-30T07:05:27.863Z,11
2023-11-30T07:06:36.193Z,11
2023-11-30T07:07:44.492Z,11
2023-11-30T07:08:53.040Z,11.5
2023-11-30T07:10:01.407Z,11.5
2023-11-30T07:11:09.724Z,11.5
2023-11-30T07:12:18.326Z,12.1
2023-11-30T07:13:26.618Z,12.1
2023-11-30T07:14:48.836Z,12.1
2023-11-30T07:15:43.582Z,18.6
2023-11-30T07:16:51.873Z,18.6
2023-11-30T07:18:00.408Z,18.6
2023-11-30T07:19:08.756Z,16.4
2023-11-30T07:20:17.113Z,16.4
2023-11-30T07:21:25.467Z,16.4
2023-11-30T07:22:33.994Z,21.9
2023-11-30T07:23:42.343Z,21.9
2023-11-30T07:24:50.699Z,21.9
2023-11-30T07:25:59.238Z,17.4
2023-11-30T07:27:07.549Z,17.4
2023-11-30T07:28:15.888Z,17.4
2023-11-30T07:29:26.394Z,15.9
2023-11-30T07:30:32.836Z,15.9
2023-11-30T07:31:41.200Z,15.9
2023-11-30T07:32:49.709Z,15.2
2023-11-30T07:33:58.044Z,15.2
2023-11-30T07:35:06.381Z,15.2
2023-11-30T07:36:14.985Z,15
2023-11-30T07:37:23.286Z,15
2023-11-30T07:38:31.628Z,15
2023-11-30T07:39:40.207Z,15.7
2023-11-30T07:40:48.518Z,15.7
2023-11-30T07:41:56.875Z,15.7
2023-11-30T07:43:05.411Z,14.7
2023-11-30T07:44:13.743Z,14.7
2023-11-30T07:45:22.100Z,14.7
2023-11-30T07:46:30.684Z,12.9
2023-11-30T07:47:38.978Z,12.9
2023-11-30T07:48:47.349Z,12.9
2023-11-30T07:49:55.864Z,12.9
2023-11-30T07:51:04.227Z,12.9
2023-11-30T07:52:12.547Z,12.9
2023-11-30T07:53:21.113Z,12.4
2023-11-30T07:54:29.471Z,12.4
2023-11-30T07:55:37.805Z,12.4
2023-11-30T07:56:46.345Z,12.5
2023-11-30T07:57:54.700Z,12.5
2023-11-30T07:59:03.043Z,12.5
2023-11-30T08:00:11.586Z,12.3
2023-11-30T08:01:19.900Z,12.3
2023-11-30T08:02:28.239Z,12.3
2023-11-30T08:03:36.887Z,12.3
2023-11-30T08:04:45.177Z,12.3
2023-11-30T08:05:53.519Z,12.3
2023-11-30T08:07:02.056Z,12.5
2023-11-30T08:08:10.382Z,12.5
2023-11-30T08:09:18.779Z,12.5
2023-11-30T08:10:27.302Z,12.6
2023-11-30T08:11:35.650Z,12.6
2023-11-30T08:12:43.987Z,12.6
2023-11-30T08:13:52.527Z,12.6
2023-11-30T08:15:00.963Z,12.6
2023-11-30T08:16:09.236Z,12.6
2023-11-30T08:17:17.713Z,13.1
2023-11-30T08:18:26.126Z,13.1
2023-11-30T08:19:34.472Z,13.1
2023-11-30T08:20:42.895Z,12.1
2023-11-30T08:21:51.231Z,12.1
2023-11-30T08:22:59.570Z,12.1
2023-11-30T08:24:08.090Z,12.5
2023-11-30T08:25:16.429Z,12.5
2023-11-30T08:26:24.767Z,12.5
2023-11-30T08:27:33.328Z,12.5
2023-11-30T08:28:41.641Z,12.5
2023-11-30T08:29:50.016Z,12.5
2023-11-30T08:30:58.572Z,12.1
2023-11-30T08:32:06.921Z,12.1
2023-11-30T08:33:15.257Z,12.1
2023-11-30T08:34:23.770Z,12.3
2023-11-30T08:35:32.085Z,12.3
2023-11-30T08:36:40.464Z,12.3
2023-11-30T08:37:48.999Z,15.5
2023-11-30T08:38:57.287Z,15.5
2023-11-30T08:40:05.610Z,15.5
2023-11-30T08:41:14.155Z,21.299999
2023-11-30T08:42:22.521Z,21.299999
2023-11-30T08:43:30.837Z,21.299999
2023-11-30T08:44:39.333Z,12.5
2023-11-30T08:45:47.738Z,12.5
2023-11-30T08:46:56.036Z,12.5
2023-11-30T08:48:04.570Z,12
2023-11-30T08:49:12.825Z,12
2023-11-30T08:50:21.158Z,12
2023-11-30T08:51:29.762Z,12.5
2023-11-30T08:52:38.065Z,12.5
2023-11-30T08:53:46.373Z,12.5
2023-11-30T08:54:54.910Z,12.4
2023-11-30T08:56:03.245Z,12.4
2023-11-30T08:57:11.597Z,12.4
2023-11-30T08:58:20.107Z,12.7
2023-11-30T08:59:28.434Z,12.7
2023-11-30T09:00:36.800Z,12.7
2023-11-30T09:01:45.453Z,13
2023-11-30T09:02:53.687Z,13
2023-11-30T09:04:02.122Z,13
2023-11-30T09:05:10.620Z,13.9
2023-11-30T09:06:18.978Z,13.9
2023-11-30T09:07:27.264Z,13.9
2023-11-30T09:08:35.802Z,14.9
2023-11-30T09:09:45.904Z,14.9
2023-11-30T09:10:52.527Z,14.9
2023-11-30T09:12:01.029Z,16
2023-11-30T09:13:09.390Z,16
2023-11-30T09:14:17.701Z,16
2023-11-30T09:15:26.259Z,14.9
2023-11-30T09:16:34.640Z,14.9
2023-11-30T09:17:42.961Z,14.9
2023-11-30T09:18:51.476Z,16.4
2023-11-30T09:19:59.816Z,16.4
2023-11-30T09:21:08.169Z,16.4
2023-11-30T09:22:16.683Z,15.8
2023-11-30T09:23:25.018Z,15.8
2023-11-30T09:24:33.450Z,15.8
2023-11-30T09:25:41.895Z,15.8
2023-11-30T09:26:51.486Z,15.8
2023-11-30T09:27:58.617Z,15.8
2023-11-30T09:29:07.169Z,14.2
2023-11-30T09:30:15.687Z,14.2
2023-11-30T09:31:23.928Z,14.2
2023-11-30T09:32:32.461Z,13.7
2023-11-30T09:33:40.810Z,13.7
2023-11-30T09:34:49.112Z,13.7
2023-11-30T09:35:57.649Z,14
2023-11-30T09:37:05.999Z,14
2023-11-30T09:38:14.335Z,14
2023-11-30T09:39:22.909Z,14.6
2023-11-30T09:40:31.244Z,14.6
2023-11-30T09:41:39.663Z,14.6
2023-11-30T09:42:48.138Z,13.3
2023-11-30T09:43:57.846Z,13.3
2023-11-30T09:45:04.827Z,13.3
2023-11-30T09:46:13.417Z,13.1
2023-11-30T09:47:21.747Z,13.1
2023-11-30T09:48:30.147Z,13.1
2023-11-30T09:49:38.653Z,14.3
2023-11-30T09:50:46.990Z,14.3
2023-11-30T09:51:55.319Z,14.3
2023-11-30T09:53:03.857Z,13.6
2023-11-30T09:54:12.237Z,13.6
2023-11-30T09:55:20.548Z,13.6
2023-11-30T09:56:29.120Z,13.9
2023-11-30T09:57:37.483Z,13.9
2023-11-30T09:58:45.789Z,13.9
2023-11-30T09:59:54.354Z,13.2
2023-11-30T10:01:02.790Z,13.2
2023-11-30T10:02:11.161Z,13.2
2023-11-30T10:03:19.646Z,13.9
2023-11-30T10:04:27.954Z,13.9
2023-11-30T10:05:36.313Z,13.9
2023-11-30T10:06:44.936Z,14.2
2023-11-30T10:07:53.176Z,14.2
2023-11-30T10:09:01.506Z,14.2
2023-11-30T10:10:10.064Z,14.1
2023-11-30T10:11:18.412Z,14.1
2023-11-30T10:12:26.791Z,14.1
2023-11-30T10:13:35.299Z,14.6
2023-11-30T10:14:43.699Z,14.6
2023-11-30T10:15:52.050Z,14.6
2023-11-30T10:17:00.644Z,13.6
2023-11-30T10:18:08.978Z,13.6
2023-11-30T10:19:17.325Z,13.6
2023-11-30T10:20:25.836Z,15.1
2023-11-30T10:21:34.249Z,15.1
2023-11-30T10:22:42.520Z,15.1
2023-11-30T10:23:51.066Z,14.1
2023-11-30T10:24:59.431Z,14.1
2023-11-30T10:26:07.766Z,14.1
2023-11-30T10:27:16.342Z,14.6
2023-11-30T10:28:24.672Z,14.6
2023-11-30T10:29:33.041Z,14.6
2023-11-30T10:30:41.571Z,16
2023-11-30T10:31:49.895Z,16
2023-11-30T10:32:58.260Z,16
2023-11-30T10:34:06.840Z,15.2
2023-11-30T10:35:15.154Z,15.2
2023-11-30T10:36:23.513Z,15.2
2023-11-30T10:37:32.061Z,15.8
2023-11-30T10:38:40.375Z,15.8
2023-11-30T10:39:48.753Z,15.8
2023-11-30T10:40:57.312Z,16.6
2023-11-30T10:42:05.660Z,16.6
2023-11-30T10:43:13.992Z,16.6
2023-11-30T10:44:22.545Z,16.1
2023-11-30T10:45:30.918Z,16.1
2023-11-30T10:46:39.294Z,16.1
2023-11-30T10:47:47.825Z,15.3
2023-11-30T10:48:56.182Z,15.3
2023-11-30T10:50:04.498Z,15.3
2023-11-30T10:51:13.088Z,16.299999
2023-11-30T10:52:21.392Z,16.299999
2023-11-30T10:53:29.766Z,16.299999
2023-11-30T10:54:38.306Z,16.4
2023-11-30T10:55:46.640Z,16.4
2023-11-30T10:56:54.991Z,16.4
2023-11-30T10:58:03.572Z,16
2023-11-30T10:59:11.908Z,16
2023-11-30T11:00:20.305Z,16
2023-11-30T11:01:28.916Z,15.8
2023-11-30T11:02:37.212Z,15.8
2023-11-30T11:03:45.587Z,15.8
2023-11-30T11:04:54.094Z,16
2023-11-30T11:06:02.440Z,16
2023-11-30T11:07:10.813Z,16
2023-11-30T11:08:19.364Z,16.200001
2023-11-30T11:09:27.785Z,16.200001
2023-11-30T11:10:36.055Z,16.200001
2023-11-30T11:11:44.631Z,16.200001
2023-11-30T11:12:52.992Z,16.200001
2023-11-30T11:14:01.313Z,16.200001
2023-11-30T11:15:12.767Z,16.299999
2023-11-30T11:16:18.282Z,16.299999
2023-11-30T11:17:26.621Z,16.299999
2023-11-30T11:18:35.142Z,15.1
2023-11-30T11:19:43.459Z,15.1
2023-11-30T11:20:51.792Z,15.1
2023-11-30T11:22:00.408Z,14.3
2023-11-30T11:23:08.758Z,14.3
2023-11-30T11:24:17.126Z,14.3
2023-11-30T11:25:25.691Z,14.5
2023-11-30T11:26:34.007Z,14.5
2023-11-30T11:27:42.375Z,14.5
2023-11-30T11:28:50.927Z,15
2023-11-30T11:29:59.299Z,15
2023-11-30T11:31:07.636Z,15
2023-11-30T11:32:16.165Z,14.1
2023-11-30T11:33:24.550Z,14.1
2023-11-30T11:34:32.864Z,14.1
2023-11-30T11:35:41.408Z,13.6
2023-11-30T11:36:49.866Z,13.6
2023-11-30T11:37:58.134Z,13.6
2023-11-30T11:39:06.705Z,14.3
2023-11-30T11:40:15.025Z,14.3
2023-11-30T11:41:23.427Z,14.3
2023-11-30T11:42:31.928Z,15.5
2023-11-30T11:43:40.231Z,15.5
2023-11-30T11:44:48.587Z,15.5
2023-11-30T11:45:57.169Z,14.1
2023-11-30T11:47:05.478Z,14.1
2023-11-30T11:48:13.873Z,14.1
2023-11-30T11:49:22.386Z,14.4
2023-11-30T11:50:30.726Z,14.4
2023-11-30T11:51:39.091Z,14.4
2023-11-30T11:52:47.632Z,13.6
2023-11-30T11:53:55.966Z,13.6
2023-11-30T11:55:04.306Z,13.6
2023-11-30T11:56:12.863Z,14.8
2023-11-30T11:57:21.267Z,14.8
2023-11-30T11:58:29.541Z,14.8
2023-11-30T11:59:38.102Z,13.7
2023-11-30T12:00:46.438Z,13.7
2023-11-30T12:01:54.841Z,13.7
2023-11-30T12:03:03.314Z,14.7
2023-11-30T12:04:11.716Z,14.7
2023-11-30T12:05:19.999Z,14.7
2023-11-30T12:06:28.609Z,14.9
2023-11-30T12:07:36.901Z,14.9
2023-11-30T12:08:45.250Z,14.9
2023-11-30T12:09:53.829Z,14
2023-11-30T12:11:02.151Z,14
2023-11-30T12:12:10.549Z,14
2023-11-30T12:13:19.078Z,15
2023-11-30T12:14:27.400Z,15
2023-11-30T12:15:35.784Z,15
2023-11-30T12:16:44.327Z,14.8
2023-11-30T12:17:52.752Z,14.8
2023-11-30T12:19:01.069Z,14.8
2023-11-30T12:20:09.604Z,15.5
2023-11-30T12:21:17.938Z,15.5
2023-11-30T12:22:26.284Z,15.5
2023-11-30T12:23:34.830Z,15.3
2023-11-30T12:24:43.217Z,15.3
2023-11-30T12:25:52.579Z,15.3
2023-11-30T12:27:00.068Z,15.4
2023-11-30T12:28:08.434Z,15.4
2023-11-30T12:29:16.829Z,15.4
2023-11-30T12:30:25.418Z,15.4
2023-11-30T12:31:33.720Z,15.4
2023-11-30T12:32:42.032Z,15.4
2023-11-30T12:33:52.457Z,14.9
2023-11-30T12:34:58.940Z,14.9
2023-11-30T12:36:07.291Z,14.9
2023-11-30T12:37:15.860Z,14.8
2023-11-30T12:38:24.242Z,14.8
2023-11-30T12:39:32.577Z,14.8
2023-11-30T12:40:41.100Z,14.1
2023-11-30T12:41:49.470Z,14.1
2023-11-30T12:42:57.839Z,14.1
2023-11-30T12:44:06.582Z,14.4
2023-11-30T12:45:14.802Z,14.4
2023-11-30T12:46:23.037Z,14.4
2023-11-30T12:47:31.637Z,14.5
2023-11-30T12:48:39.995Z,14.5
2023-11-30T12:49:48.314Z,14.5
2023-11-30T12:50:56.850Z,14.1
2023-11-30T12:52:05.237Z,14.1
2023-11-30T12:53:13.580Z,14.1
2023-11-30T12:54:22.166Z,12.3
2023-11-30T12:55:30.635Z,12.3
2023-11-30T12:56:38.897Z,12.3
2023-11-30T12:57:47.506Z,12.3
2023-11-30T12:58:55.864Z,12.3
2023-11-30T13:00:04.285Z,12.3
2023-11-30T13:01:12.807Z,12
2023-11-30T13:02:21.292Z,12
2023-11-30T13:03:29.621Z,12
2023-11-30T13:04:38.181Z,11.1
2023-11-30T13:05:46.509Z,11.1
2023-11-30T13:06:54.879Z,11.1
2023-11-30T13:08:03.423Z,11.2
2023-11-30T13:09:11.790Z,11.2
2023-11-30T13:10:20.105Z,11.2
2023-11-30T13:11:28.662Z,11.1
2023-11-30T13:12:37.014Z,11.1
2023-11-30T13:13:47.710Z,11.1
2023-11-30T13:14:53.923Z,11.6
2023-11-30T13:16:02.282Z,11.6
2023-11-30T13:17:10.644Z,11.6
2023-11-30T13:18:19.220Z,11.2
2023-11-30T13:19:27.651Z,11.2
2023-11-30T13:20:35.892Z,11.2
2023-11-30T13:21:44.471Z,11.3
2023-11-30T13:22:52.822Z,11.3
2023-11-30T13:24:01.219Z,11.3
2023-11-30T13:25:09.836Z,9.9
2023-11-30T13:26:18.149Z,9.9
2023-11-30T13:27:26.522Z,9.9
2023-11-30T13:28:37.754Z,10.8
2023-11-30T13:29:43.434Z,10.8
2023-11-30T13:30:51.852Z,10.8
2023-11-30T13:32:00.355Z,12.8
2023-11-30T13:33:08.753Z,12.8
2023-11-30T13:34:17.063Z,12.8
2023-11-30T13:35:25.624Z,73.699997
2023-11-30T13:36:33.935Z,73.699997
2023-11-30T13:37:42.271Z,73.699997
2023-11-30T13:38:50.904Z,11.1
2023-11-30T13:39:59.359Z,11.1
2023-11-30T13:41:07.968Z,11.1
2023-11-30T13:42:16.516Z,18.4
2023-11-30T13:43:24.842Z,18.4
2023-11-30T13:44:33.173Z,18.4
2023-11-30T13:45:41.762Z,8.9
2023-11-30T13:46:50.114Z,8.9
2023-11-30T13:47:58.464Z,8.9
2023-11-30T13:49:07.061Z,6.7
2023-11-30T13:50:20.322Z,6.7
2023-11-30T13:51:23.788Z,6.7
2023-11-30T13:52:32.277Z,7.3
2023-11-30T13:53:40.621Z,7.3
2023-11-30T13:54:49.657Z,7.3
2023-11-30T13:55:58.230Z,7.4
2023-11-30T13:57:06.582Z,7.4
2023-11-30T13:58:14.937Z,7.4
2023-11-30T13:59:23.466Z,7.8
2023-11-30T14:00:31.926Z,7.8
2023-11-30T14:01:40.363Z,7.8
2023-11-30T14:02:48.851Z,7.5
2023-11-30T14:03:57.231Z,7.5
2023-11-30T14:05:05.527Z,7.5
2023-11-30T14:06:14.073Z,8.3
2023-11-30T14:07:22.398Z,8.3
2023-11-30T14:08:30.744Z,8.3
2023-11-30T14:09:39.318Z,9.1
2023-11-30T14:10:47.669Z,9.1
2023-11-30T14:11:56.117Z,9.1
2023-11-30T14:13:04.611Z,9.2
2023-11-30T14:14:12.976Z,9.2
2023-11-30T14:15:21.428Z,9.2
2023-11-30T14:16:29.905Z,10.1
2023-11-30T14:17:38.264Z,10.1
2023-11-30T14:18:46.618Z,10.1
2023-11-30T14:19:55.169Z,10.7
2023-11-30T14:21:03.536Z,10.7
2023-11-30T14:22:11.841Z,10.7
2023-11-30T14:23:20.394Z,12.4
2023-11-30T14:24:28.771Z,12.4
2023-11-30T14:25:37.094Z,12.4
2023-11-30T14:26:45.692Z,11.3
2023-11-30T14:27:54.092Z,11.3
2023-11-30T14:29:02.362Z,11.3
2023-11-30T14:30:11.284Z,11.5
2023-11-30T14:31:19.389Z,11.5
2023-11-30T14:32:27.631Z,11.5
2023-11-30T14:33:36.180Z,11.1
2023-11-30T14:34:44.539Z,11.1
2023-11-30T14:35:52.882Z,11.1
2023-11-30T14:37:01.505Z,10.9
2023-11-30T14:38:09.826Z,10.9
2023-11-30T14:39:18.169Z,10.9
2023-11-30T14:40:26.708Z,9.7
2023-11-30T14:41:35.040Z,9.7
2023-11-30T14:42:43.553Z,9.7
2023-11-30T14:43:51.942Z,10.6
2023-11-30T14:45:00.291Z,10.6
2023-11-30T14:46:08.682Z,10.6
2023-11-30T14:47:17.184Z,11.1
2023-11-30T14:48:25.546Z,11.1
2023-11-30T14:49:33.956Z,11.1
2023-11-30T14:50:42.436Z,10.8
2023-11-30T14:51:50.800Z,10.8
2023-11-30T14:52:59.159Z,10.8
2023-11-30T14:54:07.688Z,10.5
2023-11-30T14:55:16.029Z,10.5
2023-11-30T14:56:24.372Z,10.5
2023-11-30T14:57:32.945Z,10.8
2023-11-30T14:58:41.316Z,10.8
2023-11-30T14:59:49.643Z,10.8
2023-11-30T15:00:58.298Z,10.9
2023-11-30T15:02:06.650Z,10.9
2023-11-30T15:03:14.992Z,10.9
2023-11-30T15:04:23.578Z,11.2
2023-11-30T15:05:31.801Z,11.2
2023-11-30T15:06:40.194Z,11.2
2023-11-30T15:07:48.754Z,12.5
2023-11-30T15:08:57.125Z,12.5
2023-11-30T15:10:05.486Z,12.5
2023-11-30T15:11:13.997Z,11.3
2023-11-30T15:44:43.893Z,0
2023-11-30T15:45:52.265Z,0
2023-11-30T15:47:00.526Z,0
2023-11-30T15:48:09.082Z,16.9
2023-11-30T15:49:17.424Z,16.9
2023-11-30T15:50:25.778Z,16.9
2023-11-30T15:51:34.378Z,18
2023-11-30T15:52:42.712Z,18
2023-11-30T15:53:51.081Z,18
2023-11-30T15:54:59.683Z,15.6
2023-11-30T15:56:07.988Z,15.6
2023-11-30T15:57:16.361Z,15.6
2023-11-30T15:58:24.888Z,12.9